Spirit Of New Jersey — WCX9137 — position and weather

sailwx.info

Track history (hours):
 
Tides and Currents Weather Stations Pressure Air Temp Water Temp Dewpoint Dewpoint Depression Visibility Wind Speed Wind Dir Waves Ship Positions

Spirit Of New Jersey

Owner: SPIRIT CRUISES, NEW YORK, NY. More information available from US FCC via Universal Licensing System and Coast Guard Vessel Documentation Center.

Last reported at 2018-Jan-08 12:59 UTC. Time now 2018-Feb-24 19:26 UTC.
Position N 40°47' W 073°60'.
Warning: this ship's position is 47 days out of date.

MMSI: 364919326.

Date/timePositionNaut miles runAvg speedWind from/ knotsBaromVisibWave heightAir tempDewpointWater temp
2018-Jan-08 12:59N 40°47' W 073°60'  
2018-Jan-04 17:10N 40°45' W 074°01'1 3.3
2018-Jan-04 17:00N 40°45' W 074°01'3 0.5
2018-Jan-04 10:35N 40°48' W 073°59'1 6.6
2018-Jan-04 10:29N 40°48' W 073°59'3 5.7
2018-Jan-04 10:00N 40°45' W 074°01'0 0.1
2018-Jan-04 02:35N 40°45' W 074°01'0 4.3
2018-Jan-04 02:30N 40°45' W 074°01'1 2.4
2018-Jan-04 02:00N 40°44' W 074°01'3 5.5
2018-Jan-04 01:30N 40°42' W 074°02'1 2.3
2018-Jan-04 01:00N 40°42' W 074°01'0 0.2
2018-Jan-04 00:30N 40°42' W 074°01'4 7.9
2018-Jan-04 00:00N 40°46' W 074°00'  
2018-Jan-01 07:06N 40°45' W 074°01'0 0.0
2018-Jan-01 07:00N 40°45' W 074°01'1 0.5
2018-Jan-01 06:00N 40°45' W 074°01'3 5.3
2018-Jan-01 05:30N 40°43' W 074°02'2 3.9
2018-Jan-01 05:00N 40°41' W 074°02'1 1.3
2018-Jan-01 04:00N 40°42' W 074°01'2 4.5
2018-Jan-01 03:30N 40°44' W 074°01'1 2.8
2018-Jan-01 03:00N 40°46' W 074°01'0 0.0
2018-Jan-01 02:30N 40°46' W 074°01'0 0.0
2018-Jan-01 02:00N 40°46' W 074°01'0 0.0
2018-Jan-01 01:30N 40°46' W 074°01'1 0.0
2017-Dec-30 21:58N 40°45' W 074°01'1 1.7
2017-Dec-30 21:30N 40°46' W 074°01'0 0.0
2017-Dec-30 21:00N 40°46' W 074°01'1 2.1
2017-Dec-30 20:30N 40°45' W 074°01'3 6.8
2017-Dec-30 20:00N 40°41' W 074°02'2 3.2
2017-Dec-30 19:30N 40°43' W 074°01'3 5.9
2017-Dec-30 19:00N 40°46' W 074°01'0 0.0
2017-Dec-30 18:30N 40°46' W 074°01'0 0.1
2017-Dec-30 17:59N 40°46' W 074°01'1 1.6
2017-Dec-30 17:30N 40°45' W 074°01'0 0.0
2017-Dec-30 16:55N 40°45' W 074°01'0 0.0
2017-Dec-30 16:25N 40°45' W 074°01'0 0.0
2017-Dec-30 15:57N 40°45' W 074°01'0 0.0
2017-Dec-30 15:27N 40°45' W 074°01'  
Track history (hours):
 
Tides and Currents Weather Stations Pressure Air Temp Water Temp Dewpoint Dewpoint Depression Visibility Wind Speed Wind Dir Waves Ship Positions

Spirit Of New Jersey

Owner: SPIRIT CRUISES, NEW YORK, NY. More information available from US FCC via Universal Licensing System and Coast Guard Vessel Documentation Center.

Last reported at 2018-Jan-08 12:59 UTC. Time now 2018-Feb-24 19:26 UTC.
Position N 40°47' W 073°60'.
Warning: this ship's position is 47 days out of date.

MMSI: 364919326.

Date/timePositionNaut miles runAvg speedWind from/ knotsBaromVisibWave heightAir tempDewpointWater temp
2018-Jan-08 12:59N 40°47' W 073°60'  
2018-Jan-04 17:10N 40°45' W 074°01'1 3.3
2018-Jan-04 17:00N 40°45' W 074°01'3 0.5
2018-Jan-04 10:35N 40°48' W 073°59'1 6.6
2018-Jan-04 10:29N 40°48' W 073°59'3 5.7
2018-Jan-04 10:00N 40°45' W 074°01'0 0.1
2018-Jan-04 02:35N 40°45' W 074°01'0 4.3
2018-Jan-04 02:30N 40°45' W 074°01'1 2.4
2018-Jan-04 02:00N 40°44' W 074°01'3 5.5
2018-Jan-04 01:30N 40°42' W 074°02'1 2.3
2018-Jan-04 01:00N 40°42' W 074°01'0 0.2
2018-Jan-04 00:30N 40°42' W 074°01'4 7.9
2018-Jan-04 00:00N 40°46' W 074°00'  
2018-Jan-01 07:06N 40°45' W 074°01'0 0.0
2018-Jan-01 07:00N 40°45' W 074°01'1 0.5
2018-Jan-01 06:00N 40°45' W 074°01'3 5.3
2018-Jan-01 05:30N 40°43' W 074°02'2 3.9
2018-Jan-01 05:00N 40°41' W 074°02'1 1.3
2018-Jan-01 04:00N 40°42' W 074°01'2 4.5
2018-Jan-01 03:30N 40°44' W 074°01'1 2.8
2018-Jan-01 03:00N 40°46' W 074°01'0 0.0
2018-Jan-01 02:30N 40°46' W 074°01'0 0.0
2018-Jan-01 02:00N 40°46' W 074°01'0 0.0
2018-Jan-01 01:30N 40°46' W 074°01'1 0.0
2017-Dec-30 21:58N 40°45' W 074°01'1 1.7
2017-Dec-30 21:30N 40°46' W 074°01'0 0.0
2017-Dec-30 21:00N 40°46' W 074°01'1 2.1
2017-Dec-30 20:30N 40°45' W 074°01'3 6.8
2017-Dec-30 20:00N 40°41' W 074°02'2 3.2
2017-Dec-30 19:30N 40°43' W 074°01'3 5.9
2017-Dec-30 19:00N 40°46' W 074°01'0 0.0
2017-Dec-30 18:30N 40°46' W 074°01'0 0.1
2017-Dec-30 17:59N 40°46' W 074°01'1 1.6
2017-Dec-30 17:30N 40°45' W 074°01'0 0.0
2017-Dec-30 16:55N 40°45' W 074°01'0 0.0
2017-Dec-30 16:25N 40°45' W 074°01'0 0.0
2017-Dec-30 15:57N 40°45' W 074°01'0 0.0
2017-Dec-30 15:27N 40°45' W 074°01'  

Dump ship's entire track history